Time;durP1;ratioP1;P1;durP2;ratioP2;P2;SDS_P1;SDS_P2;PMS_P1;PMS_P2;Temp;Humidity;BMP_temperature;BMP_pressure;BME280_temperature;BME280_humidity;BME280_pressure;Samples;Min_cycle;Max_cycle;Signal;HPM_P1;HPM_P2
2021/11/16 00:02:17;;;;;;;38.58;21.15;;;7.30;99.90;;;;;;5068361;28;20039;-43
2021/11/16 00:04:47;;;;;;;41.63;22.50;;;7.30;99.90;;;;;;5068776;28;20095;-43
2021/11/16 00:07:12;;;;;;;41.60;23.05;;;7.30;99.90;;;;;;5068512;28;20119;-43
2021/11/16 00:09:40;;;;;;;40.60;21.67;;;7.30;99.90;;;;;;5068204;28;20107;-43
2021/11/16 00:12:09;;;;;;;39.83;22.13;;;7.30;99.90;;;;;;5068629;28;20025;-44
2021/11/16 00:14:34;;;;;;;39.85;21.73;;;7.30;99.90;;;;;;5067827;28;20012;-43
2021/11/16 00:17:00;;;;;;;36.70;20.90;;;7.30;99.90;;;;;;5068025;28;20422;-43
2021/11/16 00:19:27;;;;;;;41.95;21.85;;;7.30;99.90;;;;;;5067817;28;20056;-42
2021/11/16 00:21:56;;;;;;;39.22;21.45;;;7.30;99.90;;;;;;5068007;28;20495;-42
2021/11/16 00:24:32;;;;;;;37.85;20.80;;;7.30;99.90;;;;;;5067775;28;20039;-42
2021/11/16 00:26:57;;;;;;;36.85;19.52;;;7.30;99.90;;;;;;5068545;28;20024;-42
2021/11/16 00:29:23;;;;;;;38.85;22.08;;;7.30;99.90;;;;;;5067333;28;20411;-43
2021/11/16 00:31:48;;;;;;;36.85;20.15;;;7.30;99.90;;;;;;5068154;28;20069;-43
2021/11/16 00:34:14;;;;;;;37.50;20.23;;;7.30;99.90;;;;;;5067911;28;20116;-43
2021/11/16 00:36:40;;;;;;;38.50;21.83;;;7.30;99.90;;;;;;5067298;28;20112;-43
2021/11/16 00:39:05;;;;;;;37.88;20.95;;;7.30;99.90;;;;;;5068504;28;20054;-43
2021/11/16 00:41:31;;;;;;;40.70;22.67;;;7.40;99.90;;;;;;5068169;28;20097;-42
2021/11/16 00:43:59;;;;;;;43.15;22.23;;;7.40;99.90;;;;;;5067351;28;20031;-42
2021/11/16 00:46:25;;;;;;;42.13;23.75;;;7.40;99.90;;;;;;5067486;28;20068;-46
2021/11/16 00:48:50;;;;;;;42.67;22.75;;;7.40;99.90;;;;;;5067564;28;20800;-43
2021/11/16 00:51:16;;;;;;;46.58;24.30;;;7.40;99.90;;;;;;5067610;28;20487;-42
2021/11/16 00:53:42;;;;;;;44.30;24.15;;;7.40;99.90;;;;;;5068122;28;20447;-43
2021/11/16 00:56:09;;;;;;;43.03;23.48;;;7.40;99.90;;;;;;5066491;28;20540;-42
2021/11/16 00:58:36;;;;;;;43.47;23.83;;;7.30;99.90;;;;;;5067005;28;20104;-42
2021/11/16 01:01:03;;;;;;;41.50;23.08;;;7.30;99.90;;;;;;5066342;28;20032;-42
2021/11/16 01:03:29;;;;;;;46.42;24.10;;;7.30;99.90;;;;;;5067641;28;20028;-43
2021/11/16 01:05:55;;;;;;;42.10;22.90;;;7.30;99.90;;;;;;5066721;28;20031;-43
2021/11/16 01:08:25;;;;;;;42.88;22.17;;;7.30;99.90;;;;;;5067730;28;20036;-42
2021/11/16 01:10:52;;;;;;;40.70;21.58;;;7.30;99.90;;;;;;5066837;28;20093;-42
2021/11/16 01:13:20;;;;;;;39.90;22.73;;;7.30;99.90;;;;;;5067107;28;20028;-43
2021/11/16 01:15:47;;;;;;;39.63;22.35;;;7.20;99.90;;;;;;5066932;28;20466;-43
2021/11/16 01:18:14;;;;;;;40.40;22.60;;;7.30;99.90;;;;;;5067045;28;20024;-42
2021/11/16 01:20:41;;;;;;;39.95;22.15;;;7.30;99.90;;;;;;5066990;28;20375;-41
2021/11/16 01:23:09;;;;;;;43.60;23.17;;;7.30;99.90;;;;;;5067475;28;20021;-43
2021/11/16 01:25:37;;;;;;;39.45;21.50;;;7.30;99.90;;;;;;5066104;28;20051;-43
2021/11/16 01:28:08;;;;;;;43.63;23.02;;;7.30;99.90;;;;;;5067500;28;20103;-43
2021/11/16 01:30:34;;;;;;;39.53;21.63;;;7.30;99.90;;;;;;5066945;28;20047;-42
2021/11/16 01:33:08;;;;;;;41.05;22.83;;;7.30;99.90;;;;;;5066672;28;20029;-42
2021/11/16 01:35:36;;;;;;;42.15;21.80;;;7.30;99.90;;;;;;5066874;28;20024;-42
2021/11/16 01:38:04;;;;;;;40.38;21.65;;;7.30;99.90;;;;;;5067199;28;20024;-43
2021/11/16 01:40:30;;;;;;;42.63;22.40;;;7.30;99.90;;;;;;5066280;28;20035;-42
2021/11/16 01:42:56;;;;;;;41.33;21.83;;;7.30;99.90;;;;;;5067066;28;20027;-43
2021/11/16 01:45:23;;;;;;;44.00;22.77;;;7.30;99.90;;;;;;5067199;28;20111;-44
2021/11/16 01:47:49;;;;;;;45.70;23.08;;;7.30;99.90;;;;;;5066525;28;20028;-43
2021/11/16 01:50:18;;;;;;;39.33;21.30;;;7.30;99.90;;;;;;5067307;28;20123;-42
2021/11/16 01:52:43;;;;;;;39.28;22.75;;;7.30;99.90;;;;;;5066972;28;20021;-42
2021/11/16 01:55:11;;;;;;;43.35;22.38;;;7.30;99.90;;;;;;5066173;28;20024;-43
2021/11/16 01:57:37;;;;;;;45.00;23.70;;;7.30;99.90;;;;;;5066469;28;20237;-43
2021/11/16 02:00:06;;;;;;;44.10;23.77;;;7.30;99.90;;;;;;5066899;28;20516;-43
2021/11/16 02:02:31;;;;;;;43.83;24.67;;;7.30;99.90;;;;;;5065871;28;20034;-42
2021/11/16 02:04:57;;;;;;;43.83;22.58;;;7.30;99.90;;;;;;5066652;28;20025;-43
2021/11/16 02:07:23;;;;;;;37.47;20.83;;;7.30;99.90;;;;;;5064682;28;20028;-43
2021/11/16 02:09:48;;;;;;;41.75;22.38;;;7.30;99.90;;;;;;5067222;28;20060;-42
2021/11/16 02:12:14;;;;;;;39.45;22.38;;;7.30;99.90;;;;;;5066676;28;20036;-43
2021/11/16 02:14:39;;;;;;;37.25;21.17;;;7.30;99.90;;;;;;5065768;28;20033;-43
2021/11/16 02:17:05;;;;;;;36.80;21.13;;;7.30;99.90;;;;;;5066643;28;20499;-43
2021/11/16 02:19:32;;;;;;;39.03;22.65;;;7.30;99.90;;;;;;5066600;28;20856;-43
2021/11/16 02:21:57;;;;;;;36.97;20.52;;;7.30;99.90;;;;;;5065579;28;20480;-42
2021/11/16 02:24:23;;;;;;;37.95;21.08;;;7.30;99.90;;;;;;5066575;28;20082;-43
2021/11/16 02:26:49;;;;;;;37.95;20.75;;;7.30;99.90;;;;;;5065934;28;20025;-43
2021/11/16 02:29:15;;;;;;;38.53;21.30;;;7.30;99.90;;;;;;5066381;28;20013;-43
2021/11/16 02:31:43;;;;;;;37.88;21.38;;;7.30;99.90;;;;;;5066736;28;20121;-44
2021/11/16 02:34:10;;;;;;;37.42;21.55;;;7.30;99.90;;;;;;5065600;28;20024;-42
2021/11/16 02:36:35;;;;;;;41.83;21.25;;;7.30;99.90;;;;;;5066082;28;20033;-42
2021/11/16 02:39:03;;;;;;;38.10;21.13;;;7.30;99.90;;;;;;5066084;28;20021;-43
2021/11/16 02:41:31;;;;;;;40.67;20.40;;;7.30;99.90;;;;;;5066274;28;20036;-43
2021/11/16 02:43:59;;;;;;;41.63;22.52;;;7.40;99.90;;;;;;5065337;28;20050;-43
2021/11/16 02:46:26;;;;;;;40.35;22.70;;;7.40;99.90;;;;;;5046768;28;20025;-43
2021/11/16 02:48:52;;;;;;;40.00;22.60;;;7.30;99.90;;;;;;5060382;28;20064;-43
2021/11/16 02:51:17;;;;;;;38.85;22.58;;;7.30;99.90;;;;;;5065586;28;20032;-42
2021/11/16 02:53:43;;;;;;;41.97;22.98;;;7.40;99.90;;;;;;5066163;28;20112;-43
2021/11/16 02:56:09;;;;;;;43.17;22.60;;;7.30;99.90;;;;;;5066357;28;20495;-43
2021/11/16 02:58:35;;;;;;;40.53;22.02;;;7.30;99.90;;;;;;5065767;28;20045;-42
2021/11/16 03:01:11;;;;;;;42.13;22.27;;;7.40;99.90;;;;;;5066620;28;20032;-43
2021/11/16 03:03:38;;;;;;;40.20;22.13;;;7.40;99.90;;;;;;5064922;28;20520;-42
2021/11/16 03:06:04;;;;;;;39.20;22.13;;;7.40;99.90;;;;;;5066003;28;20086;-43
2021/11/16 03:08:30;;;;;;;40.83;20.85;;;7.40;99.90;;;;;;5066323;28;20090;-43
2021/11/16 03:10:58;;;;;;;38.97;21.83;;;7.40;99.90;;;;;;5054438;28;20072;-43
2021/11/16 03:13:26;;;;;;;39.63;21.70;;;7.40;99.90;;;;;;5066121;28;20099;-42
2021/11/16 03:15:53;;;;;;;38.42;22.58;;;7.40;99.90;;;;;;5066286;28;20052;-43
2021/11/16 03:18:21;;;;;;;36.72;20.85;;;7.40;99.90;;;;;;5065873;28;20031;-44
2021/11/16 03:20:48;;;;;;;39.20;21.58;;;7.40;99.90;;;;;;5069260;28;20027;-42
2021/11/16 03:23:19;;;;;;;40.80;22.70;;;7.40;99.90;;;;;;5070108;28;20032;-43
2021/11/16 03:25:56;;;;;;;34.22;19.10;;;7.40;99.90;;;;;;5069043;28;20020;-43
2021/11/16 03:28:25;;;;;;;36.78;20.30;;;7.40;99.90;;;;;;5069907;28;20107;-43
2021/11/16 03:30:53;;;;;;;38.28;19.63;;;7.40;99.90;;;;;;5069354;28;20039;-44
2021/11/16 03:33:21;;;;;;;41.83;21.90;;;7.30;99.90;;;;;;5069536;28;20025;-43
2021/11/16 03:35:47;;;;;;;43.10;22.67;;;7.30;99.90;;;;;;5069913;28;20037;-42
2021/11/16 03:38:14;;;;;;;40.25;21.73;;;7.30;99.90;;;;;;5069421;28;20027;-42
2021/11/16 03:40:40;;;;;;;40.22;22.67;;;7.30;99.90;;;;;;5068399;28;20370;-42
2021/11/16 03:43:10;;;;;;;46.20;24.65;;;7.30;99.90;;;;;;5069867;28;20024;-43
2021/11/16 03:45:38;;;;;;;46.42;24.77;;;7.30;99.90;;;;;;5068976;28;20064;-42
2021/11/16 03:48:05;;;;;;;43.20;23.58;;;7.20;99.90;;;;;;5068898;28;20024;-42
2021/11/16 03:50:31;;;;;;;45.85;23.33;;;7.20;99.90;;;;;;5069177;28;20068;-43
2021/11/16 03:52:59;;;;;;;43.95;25.17;;;7.20;99.90;;;;;;5068108;28;20357;-43
2021/11/16 03:55:35;;;;;;;43.92;24.38;;;7.20;99.90;;;;;;5069050;28;20124;-43
2021/11/16 03:58:03;;;;;;;40.83;23.30;;;7.20;99.90;;;;;;5069382;28;20029;-43
2021/11/16 04:00:46;;;;;;;44.00;24.88;;;7.20;99.90;;;;;;5068221;28;20017;-43
2021/11/16 04:03:13;;;;;;;41.97;22.70;;;7.20;99.90;;;;;;5069131;28;20101;-42
2021/11/16 04:05:38;;;;;;;42.15;22.52;;;7.20;99.90;;;;;;5068422;28;20017;-43
2021/11/16 04:08:04;;;;;;;40.10;22.08;;;7.20;99.90;;;;;;5068318;28;20028;-43
2021/11/16 04:10:30;;;;;;;39.92;21.40;;;7.20;99.90;;;;;;5068581;28;20522;-43
2021/11/16 04:12:56;;;;;;;39.70;21.10;;;7.20;99.90;;;;;;5068738;28;20028;-43
2021/11/16 04:15:24;;;;;;;35.38;20.17;;;7.20;99.90;;;;;;5067799;28;20056;-43
2021/11/16 04:17:55;;;;;;;37.92;20.77;;;7.20;99.90;;;;;;5068787;28;20093;-43
2021/11/16 04:20:45;;;;;;;36.22;20.60;;;7.20;99.90;;;;;;5068802;28;20060;-42
2021/11/16 04:23:12;;;;;;;35.85;19.83;;;7.30;99.90;;;;;;5066522;28;20735;-42
2021/11/16 04:25:40;;;;;;;37.78;20.83;;;7.20;99.90;;;;;;5068390;28;20460;-43
2021/11/16 04:28:07;;;;;;;35.95;19.92;;;7.30;99.90;;;;;;5063672;28;20035;-42
2021/11/16 04:30:33;;;;;;;35.38;19.55;;;7.30;99.90;;;;;;5068162;28;20047;-42
2021/11/16 04:32:59;;;;;;;35.55;19.83;;;7.30;99.90;;;;;;5068384;28;20032;-44
2021/11/16 04:35:29;;;;;;;37.08;20.33;;;7.30;99.90;;;;;;5067724;28;20063;-43
2021/11/16 04:37:57;;;;;;;35.38;21.02;;;7.30;99.90;;;;;;5068236;28;20107;-43
2021/11/16 04:40:33;;;;;;;36.70;20.10;;;7.20;99.90;;;;;;5067639;28;20108;-43
2021/11/16 04:43:03;;;;;;;38.90;20.92;;;7.30;99.90;;;;;;5067540;28;20017;-42
2021/11/16 04:45:28;;;;;;;43.53;22.33;;;7.30;99.90;;;;;;5068081;28;20476;-43
2021/11/16 04:48:03;;;;;;;38.63;21.80;;;7.30;99.90;;;;;;5067851;28;20031;-42
2021/11/16 04:55:52;;;;;;;43.42;23.83;;;7.20;99.90;;;;;;5067869;28;20041;-43
2021/11/16 05:03:54;;;;;;;42.28;22.80;;;7.10;99.90;;;;;;5066136;28;20537;-43
2021/11/16 05:06:20;;;;;;;43.92;22.95;;;7.10;99.90;;;;;;5067670;28;20115;-44
2021/11/16 05:08:47;;;;;;;44.80;23.67;;;7.10;99.90;;;;;;5066819;28;20140;-43
2021/11/16 05:11:15;;;;;;;39.40;22.27;;;7.10;99.90;;;;;;5066919;28;20044;-42
2021/11/16 05:13:43;;;;;;;47.88;24.42;;;7.10;99.90;;;;;;5067257;28;20511;-43
2021/11/16 05:16:16;;;;;;;46.38;23.00;;;7.10;99.90;;;;;;5067048;28;20780;-42
2021/11/16 05:18:43;;;;;;;46.63;23.58;;;7.10;99.90;;;;;;5066561;28;20042;-42
2021/11/16 05:21:10;;;;;;;46.65;24.10;;;7.10;99.90;;;;;;5067760;28;20037;-43
2021/11/16 05:23:42;;;;;;;43.92;23.13;;;7.10;99.90;;;;;;5066892;28;20037;-43
2021/11/16 05:26:07;;;;;;;47.97;24.67;;;7.00;99.90;;;;;;5066919;28;20025;-43
2021/11/16 05:28:33;;;;;;;49.30;23.83;;;7.00;99.90;;;;;;5066968;28;20102;-42
2021/11/16 05:31:01;;;;;;;45.58;24.48;;;7.00;99.90;;;;;;5066823;28;20036;-43
2021/11/16 05:33:27;;;;;;;47.08;24.85;;;7.00;99.90;;;;;;5066299;28;20020;-42
2021/11/16 05:35:58;;;;;;;48.63;24.13;;;7.00;99.90;;;;;;5067526;28;20047;-42
2021/11/16 05:38:30;;;;;;;50.13;25.08;;;7.00;99.90;;;;;;5066108;28;20073;-43
2021/11/16 05:40:56;;;;;;;52.20;25.83;;;7.00;99.90;;;;;;5066945;28;20027;-43
2021/11/16 05:43:22;;;;;;;49.50;24.02;;;7.00;99.90;;;;;;5066438;28;20028;-43
2021/11/16 05:45:48;;;;;;;45.33;23.17;;;7.00;99.90;;;;;;5066714;28;20024;-43
2021/11/16 05:48:14;;;;;;;47.65;24.02;;;7.00;99.90;;;;;;5067319;28;20126;-43
2021/11/16 05:50:40;;;;;;;48.28;24.20;;;7.00;99.90;;;;;;5066453;28;20035;-43
2021/11/16 05:53:08;;;;;;;45.90;23.42;;;7.00;99.90;;;;;;5066187;28;20028;-42
2021/11/16 05:55:34;;;;;;;51.33;25.25;;;7.10;99.90;;;;;;5066510;28;20021;-42
2021/11/16 05:58:00;;;;;;;48.47;24.73;;;7.00;99.90;;;;;;5066887;28;20498;-43
2021/11/16 06:00:26;;;;;;;49.40;24.02;;;7.00;99.90;;;;;;5066326;28;20054;-43
2021/11/16 06:02:53;;;;;;;48.67;24.40;;;7.00;99.90;;;;;;5067007;28;20541;-43
2021/11/16 06:05:19;;;;;;;50.33;24.80;;;7.00;99.90;;;;;;5066198;28;20016;-42
2021/11/16 06:07:44;;;;;;;45.13;23.75;;;7.00;99.90;;;;;;5065840;28;20025;-43
2021/11/16 06:10:11;;;;;;;42.10;22.00;;;7.00;99.90;;;;;;5066913;28;20040;-43
2021/11/16 06:12:36;;;;;;;42.97;22.83;;;7.00;99.90;;;;;;5066209;28;20040;-43
2021/11/16 06:15:04;;;;;;;47.13;23.73;;;7.00;99.90;;;;;;5065657;28;20052;-43
2021/11/16 06:17:29;;;;;;;50.45;24.17;;;6.90;99.90;;;;;;5066529;28;20404;-42
2021/11/16 06:19:56;;;;;;;50.88;25.95;;;6.90;99.90;;;;;;5065776;28;20027;-42
2021/11/16 06:22:22;;;;;;;49.95;23.60;;;6.90;99.90;;;;;;5066242;28;20033;-44
2021/11/16 06:24:50;;;;;;;49.95;24.20;;;6.80;99.90;;;;;;5066798;28;20488;-45
2021/11/16 06:27:16;;;;;;;43.15;20.35;;;6.80;99.90;;;;;;5066347;28;20028;-43
2021/11/16 06:29:41;;;;;;;44.60;21.58;;;6.80;99.90;;;;;;5065744;28;20021;-43
2021/11/16 06:32:08;;;;;;;48.45;21.90;;;6.90;99.90;;;;;;5066506;28;20120;-44
2021/11/16 06:34:35;;;;;;;46.80;23.00;;;6.80;99.90;;;;;;5065492;28;20028;-43
2021/11/16 06:37:01;;;;;;;43.70;22.42;;;6.90;99.90;;;;;;5065912;28;20448;-43
2021/11/16 06:39:29;;;;;;;42.35;21.30;;;6.90;99.90;;;;;;5066698;28;20090;-43
2021/11/16 06:41:59;;;;;;;46.63;22.63;;;6.90;99.90;;;;;;5065401;28;20032;-44
2021/11/16 06:44:25;;;;;;;49.10;23.08;;;6.90;99.90;;;;;;5046580;28;20032;-44
2021/11/16 06:46:53;;;;;;;44.53;21.23;;;6.90;99.90;;;;;;5060311;28;20570;-43
2021/11/16 06:49:20;;;;;;;43.13;20.92;;;6.90;99.90;;;;;;5066330;28;20028;-44
2021/11/16 06:51:49;;;;;;;47.85;22.88;;;6.90;99.90;;;;;;5065477;28;20032;-42
2021/11/16 06:54:17;;;;;;;43.22;21.02;;;6.90;99.90;;;;;;5066551;28;20464;-43
2021/11/16 06:56:49;;;;;;;43.38;20.10;;;6.90;99.90;;;;;;5067116;28;20976;-42
2021/11/16 06:59:16;;;;;;;37.73;19.77;;;6.90;99.90;;;;;;5070466;28;20383;-43
2021/11/16 07:01:43;;;;;;;38.80;19.45;;;6.90;99.90;;;;;;5065438;28;20281;-43
2021/11/16 07:04:13;;;;;;;39.65;19.33;;;7.00;99.90;;;;;;5069106;28;20016;-42
2021/11/16 07:06:45;;;;;;;40.20;18.65;;;7.00;99.90;;;;;;5068582;28;20048;-43
2021/11/16 07:09:13;;;;;;;41.60;20.00;;;7.00;99.90;;;;;;5068732;28;20033;-43
2021/11/16 07:11:57;;;;;;;48.63;21.85;;;7.00;99.90;;;;;;5067679;28;20031;-42
2021/11/16 07:14:26;;;;;;;43.78;22.02;;;7.00;99.90;;;;;;5068869;28;20468;-43
2021/11/16 07:16:55;;;;;;;43.63;21.45;;;7.00;99.90;;;;;;5067225;28;20044;-43
2021/11/16 07:19:32;;;;;;;48.53;23.23;;;7.00;99.90;;;;;;5070098;28;20032;-43
2021/11/16 07:22:00;;;;;;;43.33;21.60;;;7.00;99.90;;;;;;5067731;28;20103;-42
2021/11/16 07:24:28;;;;;;;47.05;22.25;;;7.00;99.90;;;;;;5068191;28;20074;-43
2021/11/16 07:27:04;;;;;;;45.22;21.42;;;7.00;99.90;;;;;;5067035;28;20025;-43
2021/11/16 07:29:41;;;;;;;48.53;22.17;;;7.00;99.90;;;;;;5068143;28;20024;-41
2021/11/16 07:32:09;;;;;;;41.00;19.80;;;6.90;99.90;;;;;;5059571;28;20032;-42
2021/11/16 07:34:36;;;;;;;43.72;21.05;;;7.00;99.90;;;;;;5069569;28;20025;-43
2021/11/16 07:37:04;;;;;;;43.72;21.25;;;6.90;99.90;;;;;;5069482;28;20037;-43
2021/11/16 07:39:42;;;;;;;47.65;21.52;;;6.90;99.90;;;;;;5065243;28;20032;-43
2021/11/16 07:42:08;;;;;;;46.72;21.77;;;6.90;99.90;;;;;;5069304;28;20369;-42
2021/11/16 07:44:34;;;;;;;45.38;22.25;;;7.00;99.90;;;;;;5068413;28;20013;-44
2021/11/16 07:46:59;;;;;;;43.03;21.02;;;7.00;99.90;;;;;;5067195;28;20498;-42
2021/11/16 07:49:25;;;;;;;39.90;19.98;;;7.00;99.90;;;;;;5068529;28;20024;-44
2021/11/16 07:51:54;;;;;;;40.70;19.45;;;7.00;99.90;;;;;;5067600;28;20029;-43
2021/11/16 07:54:25;;;;;;;39.42;19.55;;;7.00;99.90;;;;;;5069218;28;20077;-43
2021/11/16 07:56:51;;;;;;;40.58;19.65;;;7.00;99.90;;;;;;5048800;28;20039;-43
2021/11/16 07:59:21;;;;;;;38.67;19.38;;;7.00;99.90;;;;;;5063069;28;20020;-42
2021/11/16 08:02:01;;;;;;;44.75;20.27;;;6.90;99.90;;;;;;5067519;28;20028;-43
2021/11/16 08:07:24;;;;;;;42.83;20.65;;;6.90;99.90;;;;;;5068035;28;20067;-42
2021/11/16 08:09:52;;;;;;;39.05;18.92;;;6.80;99.90;;;;;;5068220;28;20028;-42
2021/11/16 08:12:37;;;;;;;32.38;16.58;;;6.80;99.90;;;;;;5068342;28;20021;-42
2021/11/16 08:15:10;;;;;;;35.50;17.38;;;6.80;99.90;;;;;;5067950;28;20438;-43
2021/11/16 08:17:36;;;;;;;37.70;17.77;;;6.80;99.90;;;;;;5070063;28;20025;-44
2021/11/16 08:20:21;;;;;;;37.75;17.77;;;6.80;99.90;;;;;;5068169;28;20427;-43
2021/11/16 08:22:47;;;;;;;37.47;17.45;;;6.90;99.90;;;;;;5048726;28;20114;-43
2021/11/16 08:25:12;;;;;;;38.25;18.33;;;6.90;99.90;;;;;;5063504;28;20017;-44
2021/11/16 08:27:43;;;;;;;37.30;17.83;;;6.90;99.90;;;;;;5067687;28;20029;-43
2021/11/16 08:30:11;;;;;;;38.90;18.85;;;6.90;99.90;;;;;;5067775;28;20036;-44
2021/11/16 08:32:40;;;;;;;41.03;19.75;;;6.80;99.90;;;;;;5068019;28;20024;-43
2021/11/16 08:35:14;;;;;;;41.05;20.05;;;6.80;99.90;;;;;;5067590;28;20032;-42
2021/11/16 08:37:42;;;;;;;41.80;19.60;;;6.80;99.90;;;;;;5067830;28;20116;-44
2021/11/16 08:40:15;;;;;;;44.85;20.45;;;6.80;99.90;;;;;;5067605;28;20101;-43
2021/11/16 08:42:45;;;;;;;42.35;20.20;;;6.80;99.90;;;;;;5067189;28;20662;-44
2021/11/16 08:45:17;;;;;;;42.40;19.30;;;6.90;99.90;;;;;;5067497;28;20563;-44
2021/11/16 08:47:49;;;;;;;43.17;18.95;;;6.90;99.90;;;;;;5067678;28;20025;-43
2021/11/16 08:50:28;;;;;;;41.53;19.17;;;7.00;99.90;;;;;;5060137;28;20021;-43
2021/11/16 08:53:00;;;;;;;39.78;19.08;;;7.00;99.90;;;;;;5049238;28;20108;-43
2021/11/16 08:55:29;;;;;;;38.55;18.30;;;7.00;99.90;;;;;;5066278;28;20017;-43
2021/11/16 08:57:57;;;;;;;36.47;18.35;;;7.00;99.90;;;;;;5066412;28;20028;-43
2021/11/16 09:00:26;;;;;;;39.92;18.67;;;7.10;99.90;;;;;;5066040;28;20021;-44
2021/11/16 09:03:09;;;;;;;38.22;18.33;;;7.10;99.90;;;;;;5051421;28;20021;-44
2021/11/16 09:05:43;;;;;;;36.63;17.80;;;7.10;99.90;;;;;;5066439;28;20535;-43
2021/11/16 09:08:15;;;;;;;40.55;18.73;;;7.10;99.90;;;;;;5066237;28;20035;-43
2021/11/16 09:10:43;;;;;;;40.00;18.17;;;7.10;99.90;;;;;;5065321;28;20024;-46
2021/11/16 09:13:12;;;;;;;38.03;18.85;;;7.10;99.90;;;;;;5051606;28;20017;-42
2021/11/16 09:15:46;;;;;;;40.60;18.33;;;7.10;99.90;;;;;;5066161;28;20058;-44
2021/11/16 09:18:29;;;;;;;39.95;19.42;;;7.10;99.90;;;;;;5062377;28;20468;-44
2021/11/16 09:21:14;;;;;;;43.50;21.02;;;7.10;99.90;;;;;;5064571;28;20024;-43
2021/11/16 09:23:52;;;;;;;40.58;20.25;;;7.00;99.90;;;;;;5041481;28;20074;-43
2021/11/16 09:26:32;;;;;;;43.63;19.60;;;6.90;99.90;;;;;;5066614;28;20051;-44
2021/11/16 09:28:59;;;;;;;38.35;18.80;;;6.90;99.90;;;;;;5065122;28;20183;-44
2021/11/16 09:31:42;;;;;;;39.53;18.25;;;6.90;99.90;;;;;;5061733;28;20032;-43
2021/11/16 09:34:24;;;;;;;35.25;16.55;;;6.90;99.90;;;;;;5056384;28;20017;-42
2021/11/16 09:36:51;;;;;;;35.80;17.08;;;7.00;99.90;;;;;;5065132;28;20020;-43
2021/11/16 09:39:20;;;;;;;35.05;16.70;;;7.00;99.90;;;;;;5065120;28;20539;-41
2021/11/16 09:41:49;;;;;;;39.08;17.52;;;7.00;99.90;;;;;;5053430;28;20016;-43
2021/11/16 09:44:27;;;;;;;35.85;17.23;;;7.00;99.90;;;;;;5057007;28;20027;-43
2021/11/16 09:47:07;;;;;;;34.92;17.70;;;7.10;99.90;;;;;;5064752;28;20032;-43
2021/11/16 09:49:32;;;;;;;38.55;16.35;;;7.10;99.90;;;;;;5064030;28;20463;-43
2021/11/16 09:52:02;;;;;;;33.13;15.48;;;7.10;99.90;;;;;;5054200;28;20056;-43
2021/11/16 09:54:28;;;;;;;32.90;16.05;;;7.10;99.90;;;;;;5050280;28;20357;-44
2021/11/16 09:57:06;;;;;;;34.88;15.75;;;7.10;99.90;;;;;;5064906;28;20035;-42
2021/11/16 09:59:32;;;;;;;35.08;16.17;;;7.10;99.90;;;;;;5064480;28;20396;-43
2021/11/16 10:01:58;;;;;;;33.08;16.10;;;7.20;99.90;;;;;;5053765;28;20023;-44
2021/11/16 10:04:29;;;;;;;36.40;16.15;;;7.20;99.90;;;;;;5060729;28;20379;-43
2021/11/16 10:06:55;;;;;;;34.47;16.75;;;7.20;99.90;;;;;;5064734;28;20029;-44
2021/11/16 10:09:21;;;;;;;31.92;16.27;;;7.30;99.90;;;;;;5065582;28;20728;-43
2021/11/16 10:11:51;;;;;;;34.90;16.63;;;7.30;99.90;;;;;;5058602;28;20517;-43
2021/11/16 10:14:20;;;;;;;33.30;15.52;;;7.30;99.90;;;;;;5055657;28;20029;-42
2021/11/16 10:16:54;;;;;;;28.13;14.38;;;7.30;99.90;;;;;;5064080;28;20127;-44
2021/11/16 10:19:20;;;;;;;33.75;15.70;;;7.30;99.90;;;;;;5064771;28;20115;-43
2021/11/16 10:21:45;;;;;;;32.33;15.63;;;7.30;99.90;;;;;;5058842;28;20031;-43
2021/11/16 10:24:32;;;;;;;35.25;15.68;;;7.30;99.90;;;;;;5055267;28;20039;-42
2021/11/16 10:27:03;;;;;;;39.63;16.60;;;7.30;99.90;;;;;;5050187;28;20082;-43
2021/11/16 10:29:29;;;;;;;31.92;15.52;;;7.30;99.90;;;;;;5060888;28;20029;-43
2021/11/16 10:31:58;;;;;;;34.53;15.40;;;7.30;99.90;;;;;;5062258;28;20043;-44
2021/11/16 10:34:40;;;;;;;35.53;16.55;;;7.40;99.90;;;;;;5061985;28;20456;-43
2021/11/16 10:37:07;;;;;;;32.95;16.83;;;7.40;99.90;;;;;;5070465;28;20039;-43
2021/11/16 10:39:34;;;;;;;36.80;16.70;;;7.40;99.90;;;;;;5068957;28;20028;-44
2021/11/16 10:42:04;;;;;;;34.78;16.92;;;7.40;99.90;;;;;;5053535;28;20024;-44
2021/11/16 10:44:31;;;;;;;33.03;15.98;;;7.40;99.90;;;;;;5062039;28;20573;-44
2021/11/16 10:47:01;;;;;;;30.83;15.93;;;7.40;99.90;;;;;;5067470;28;20575;-43
2021/11/16 10:49:27;;;;;;;32.75;15.52;;;7.40;99.90;;;;;;5068028;28;20052;-44
2021/11/16 10:51:52;;;;;;;29.75;15.02;;;7.40;99.90;;;;;;5062297;28;20067;-43
2021/11/16 10:54:18;;;;;;;33.83;16.35;;;7.40;99.90;;;;;;5057102;28;20024;-43
2021/11/16 10:56:45;;;;;;;32.92;15.30;;;7.50;99.90;;;;;;5066550;28;20024;-42
2021/11/16 10:59:14;;;;;;;27.60;14.18;;;7.50;99.90;;;;;;5065269;28;20033;-43
2021/11/16 11:01:47;;;;;;;28.95;13.90;;;7.50;99.90;;;;;;5050089;28;20051;-43
2021/11/16 11:04:19;;;;;;;27.85;13.55;;;7.50;99.90;;;;;;5058063;28;20033;-43
2021/11/16 11:06:49;;;;;;;29.35;14.80;;;7.50;99.90;;;;;;5067307;28;20389;-41
2021/11/16 11:09:15;;;;;;;32.75;15.40;;;7.50;99.90;;;;;;5066444;28;20056;-42
2021/11/16 11:11:46;;;;;;;29.15;14.52;;;7.50;99.90;;;;;;5061592;28;20742;-43
2021/11/16 11:14:17;;;;;;;30.55;15.13;;;7.50;99.90;;;;;;5057895;28;20025;-43
2021/11/16 11:16:59;;;;;;;28.48;13.82;;;7.50;99.90;;;;;;5063486;28;20048;-43
2021/11/16 11:19:27;;;;;;;25.23;13.95;;;7.60;99.90;;;;;;5068156;28;20052;-42
2021/11/16 11:22:00;;;;;;;24.60;12.32;;;7.60;99.90;;;;;;5061423;28;20669;-43
2021/11/16 11:24:39;;;;;;;23.27;12.52;;;7.60;99.90;;;;;;5061909;28;20055;-43
2021/11/16 11:27:30;;;;;;;21.25;11.60;;;7.60;99.90;;;;;;5063571;28;20078;-44
2021/11/16 11:32:29;;;;;;;23.17;12.75;;;7.60;99.90;;;;;;5057495;28;20502;-43
2021/11/16 11:35:01;;;;;;;21.75;11.30;;;7.60;99.90;;;;;;5066363;28;20017;-42
2021/11/16 11:37:32;;;;;;;22.17;11.43;;;7.70;99.90;;;;;;5064065;28;20025;-43
2021/11/16 11:40:14;;;;;;;20.52;11.30;;;7.70;99.90;;;;;;5065789;28;20115;-42
2021/11/16 11:42:52;;;;;;;22.98;11.70;;;7.70;99.90;;;;;;5064702;28;20043;-42
2021/11/16 11:45:26;;;;;;;22.27;11.15;;;7.70;99.90;;;;;;5067770;28;20032;-44
2021/11/16 11:48:06;;;;;;;22.02;10.57;;;7.60;99.90;;;;;;5056634;28;20016;-43
2021/11/16 11:50:44;;;;;;;23.55;11.48;;;7.60;99.90;;;;;;5067708;28;20040;-43
2021/11/16 11:53:18;;;;;;;23.85;11.82;;;7.60;99.90;;;;;;5067030;28;20028;-43
2021/11/16 11:55:50;;;;;;;23.25;11.18;;;7.60;99.90;;;;;;5067629;28;20020;-43
2021/11/16 11:58:18;;;;;;;22.55;12.27;;;7.60;99.90;;;;;;5067877;28;20035;-43
2021/11/16 12:00:48;;;;;;;20.23;11.20;;;7.60;99.90;;;;;;5068080;28;20025;-44
2021/11/16 12:03:14;;;;;;;21.20;12.15;;;7.60;99.90;;;;;;5068204;28;20044;-44
2021/11/16 12:05:42;;;;;;;23.95;11.73;;;7.60;99.90;;;;;;5067578;28;20028;-44
2021/11/16 12:08:09;;;;;;;24.08;12.45;;;7.50;99.90;;;;;;5066827;28;20028;-43
2021/11/16 12:10:37;;;;;;;24.27;12.52;;;7.60;99.90;;;;;;5068338;28;20036;-43
2021/11/16 12:13:05;;;;;;;29.58;13.75;;;7.60;99.90;;;;;;5050731;28;20054;-43
2021/11/16 12:15:39;;;;;;;32.42;16.20;;;7.50;99.90;;;;;;5058555;28;20123;-43
2021/11/16 12:18:08;;;;;;;28.30;14.45;;;7.40;99.90;;;;;;5047776;28;20032;-42
2021/11/16 12:20:57;;;;;;;27.10;13.18;;;7.40;99.90;;;;;;5066274;28;20028;-43
2021/11/16 12:23:51;;;;;;;26.73;12.88;;;7.30;99.90;;;;;;5065089;28;20033;-43
2021/11/16 12:26:17;;;;;;;24.10;11.88;;;7.30;99.90;;;;;;5050240;28;20127;-43
2021/11/16 12:28:44;;;;;;;26.02;13.23;;;7.30;99.90;;;;;;5065408;28;20028;-43
2021/11/16 12:31:28;;;;;;;26.83;13.27;;;7.40;99.90;;;;;;5066357;28;20047;-44
2021/11/16 12:33:57;;;;;;;25.67;13.02;;;7.40;99.90;;;;;;5065418;28;20032;-43
2021/11/16 12:36:32;;;;;;;25.90;13.27;;;7.40;99.90;;;;;;5049860;28;20033;-43
2021/11/16 12:39:10;;;;;;;24.92;13.20;;;7.40;99.90;;;;;;5065598;28;20025;-43
2021/11/16 12:41:39;;;;;;;24.83;12.70;;;7.40;99.90;;;;;;5066113;28;20035;-43
2021/11/16 12:44:11;;;;;;;23.00;11.98;;;7.40;99.90;;;;;;5066373;28;20028;-43
2021/11/16 12:46:39;;;;;;;28.57;13.47;;;7.50;99.90;;;;;;5052263;28;20055;-42
2021/11/16 12:49:31;;;;;;;26.98;12.43;;;7.50;99.90;;;;;;5066078;28;20017;-43
2021/11/16 12:51:59;;;;;;;24.08;12.10;;;7.50;99.90;;;;;;5046772;28;20040;-42
2021/11/16 12:54:28;;;;;;;27.35;12.48;;;7.50;99.90;;;;;;5062561;28;20115;-42
2021/11/16 12:56:56;;;;;;;22.50;11.68;;;7.50;99.90;;;;;;5051071;28;20032;-42
2021/11/16 12:59:23;;;;;;;25.02;12.77;;;7.50;99.90;;;;;;5066734;28;20054;-43
2021/11/16 13:01:56;;;;;;;21.38;11.63;;;7.50;99.90;;;;;;5065668;28;20060;-44
2021/11/16 13:04:44;;;;;;;23.27;12.23;;;7.50;99.90;;;;;;5066788;28;20040;-43